Time;durP1;ratioP1;P1;durP2;ratioP2;P2;SDS_P1;SDS_P2;PMS_P1;PMS_P2;Temp;Humidity;BMP_temperature;BMP_pressure;BME280_temperature;BME280_humidity;BME280_pressure;Samples;Min_cycle;Max_cycle;Signal;HPM_P1;HPM_P2
2022/07/18 00:00:07;;;;;;;5.95;3.15;;;20.70;99.90;;;;;;5094136;28;20207;-68
2022/07/18 00:02:33;;;;;;;9.02;3.70;;;20.50;1.00;;;;;;5093823;28;20672;-67
2022/07/18 00:04:59;;;;;;;8.23;3.47;;;20.40;99.90;;;;;;5094046;28;20180;-69
2022/07/18 00:07:24;;;;;;;7.45;3.63;;;20.40;1.00;;;;;;5092635;28;20216;-69
2022/07/18 00:09:50;;;;;;;8.20;3.40;;;20.30;1.00;;;;;;5093679;28;20214;-69
2022/07/18 00:12:16;;;;;;;6.40;3.53;;;20.20;1.00;;;;;;5093956;28;20172;-69
2022/07/18 00:14:42;;;;;;;12.30;3.38;;;20.10;1.00;;;;;;5093416;28;20705;-69
2022/07/18 00:17:08;;;;;;;5.38;3.42;;;20.10;99.90;;;;;;5093890;28;20171;-69
2022/07/18 00:19:34;;;;;;;6.97;3.60;;;20.00;99.90;;;;;;5093586;28;20233;-69
2022/07/18 00:22:00;;;;;;;5.57;3.45;;;20.00;99.90;;;;;;5093463;28;20201;-68
2022/07/18 00:24:26;;;;;;;7.82;3.50;;;20.00;99.90;;;;;;5093089;28;20176;-69
2022/07/18 00:26:52;;;;;;;7.38;3.40;;;20.00;99.90;;;;;;5093688;28;20182;-69
2022/07/18 00:29:18;;;;;;;5.93;3.10;;;19.90;1.00;;;;;;5093630;28;20580;-69
2022/07/18 00:31:43;;;;;;;6.93;3.50;;;19.80;99.90;;;;;;5093715;28;20164;-68
2022/07/18 00:34:09;;;;;;;10.80;3.55;;;19.80;99.90;;;;;;5093431;28;20658;-68
2022/07/18 00:36:35;;;;;;;5.18;3.17;;;19.70;1.00;;;;;;5093549;28;20164;-69
2022/07/18 00:39:00;;;;;;;6.22;2.78;;;19.80;99.90;;;;;;5093111;28;20635;-68
2022/07/18 00:41:26;;;;;;;6.72;2.95;;;19.80;99.90;;;;;;5093515;28;20591;-69
2022/07/18 00:43:52;;;;;;;5.28;3.08;;;19.80;99.90;;;;;;5093538;28;20296;-68
2022/07/18 00:46:23;;;;;;;6.68;3.28;;;19.80;99.90;;;;;;5093471;28;20168;-68
2022/07/18 00:48:49;;;;;;;8.23;3.10;;;19.80;1.00;;;;;;5093426;28;20276;-68
2022/07/18 00:51:16;;;;;;;6.88;3.13;;;19.80;1.00;;;;;;5093514;28;20179;-68
2022/07/18 00:53:42;;;;;;;5.55;3.20;;;19.70;37.20;;;;;;5092958;28;20172;-67
2022/07/18 00:56:09;;;;;;;4.15;3.00;;;19.70;1.00;;;;;;5093266;28;20528;-68
2022/07/18 00:58:34;;;;;;;5.72;2.97;;;19.70;1.00;;;;;;5093304;28;20183;-69
2022/07/18 01:03:44;;;;;;;4.07;3.10;;;19.60;99.90;;;;;;5093154;28;20554;-68
2022/07/18 01:06:10;;;;;;;6.72;3.20;;;19.70;99.90;;;;;;5093279;28;20254;-68
2022/07/18 01:08:37;;;;;;;4.65;3.00;;;19.60;1.00;;;;;;5092846;28;20204;-69
2022/07/18 01:11:03;;;;;;;4.75;2.83;;;19.50;1.00;;;;;;5093307;28;20184;-68
2022/07/18 01:13:29;;;;;;;5.85;3.33;;;19.50;1.00;;;;;;5092960;28;20323;-69
2022/07/18 01:15:54;;;;;;;6.35;3.25;;;19.60;1.00;;;;;;5097173;28;20192;-68
2022/07/18 01:18:20;;;;;;;7.90;3.05;;;19.60;1.00;;;;;;5097100;28;20533;-68
2022/07/18 01:20:46;;;;;;;7.65;3.30;;;19.50;1.00;;;;;;5096765;28;20187;-68
2022/07/18 01:23:11;;;;;;;8.68;3.20;;;19.50;99.90;;;;;;5096984;28;20180;-69
2022/07/18 01:25:37;;;;;;;6.03;3.25;;;19.40;99.90;;;;;;5096862;28;20182;-69
2022/07/18 01:28:03;;;;;;;4.90;2.85;;;19.30;99.90;;;;;;5097040;28;20164;-68
2022/07/18 01:30:29;;;;;;;8.15;3.22;;;19.30;99.90;;;;;;5096678;28;20607;-68
2022/07/18 01:32:56;;;;;;;6.20;3.38;;;19.30;99.90;;;;;;5096719;28;20183;-68
2022/07/18 01:35:23;;;;;;;5.60;3.22;;;19.30;29.70;;;;;;5096309;28;20614;-68
2022/07/18 01:37:57;;;;;;;12.05;3.50;;;19.20;1.00;;;;;;5096878;28;20172;-68
2022/07/18 01:40:23;;;;;;;9.10;3.95;;;19.10;1.00;;;;;;5096887;28;20210;-68
2022/07/18 01:42:49;;;;;;;11.38;3.20;;;19.00;1.00;;;;;;5096432;28;20589;-68
2022/07/18 01:45:15;;;;;;;4.07;3.38;;;19.00;99.90;;;;;;5096474;28;20217;-68
2022/07/18 01:47:41;;;;;;;7.93;3.10;;;18.90;99.90;;;;;;5096462;28;20175;-68
2022/07/18 01:50:09;;;;;;;7.80;3.03;;;18.90;1.00;;;;;;5096102;28;20303;-68
2022/07/18 01:52:35;;;;;;;6.87;3.40;;;18.90;99.90;;;;;;5096399;28;20213;-68
2022/07/18 01:55:01;;;;;;;5.55;3.30;;;18.90;1.00;;;;;;5096349;28;20172;-69
2022/07/18 01:57:26;;;;;;;6.87;3.37;;;18.90;1.00;;;;;;5096309;28;20180;-68
2022/07/18 01:59:52;;;;;;;7.80;3.00;;;18.80;1.00;;;;;;5096253;28;20266;-68
2022/07/18 02:02:17;;;;;;;8.43;3.13;;;18.60;99.90;;;;;;5096132;28;20703;-68
2022/07/18 02:05:02;;;;;;;8.20;3.43;;;18.60;99.90;;;;;;5095925;28;20175;-68
2022/07/18 02:07:36;;;;;;;9.10;3.10;;;18.50;99.90;;;;;;5096147;28;20172;-68
2022/07/18 02:10:09;;;;;;;6.03;3.00;;;18.50;99.90;;;;;;5096005;28;20218;-67
2022/07/18 02:12:34;;;;;;;5.57;3.37;;;18.50;99.90;;;;;;5095731;28;20259;-68
2022/07/18 02:15:00;;;;;;;5.53;2.97;;;18.50;99.90;;;;;;5096165;28;20222;-67
2022/07/18 02:17:26;;;;;;;4.97;3.10;;;18.50;1.00;;;;;;5096083;28;20195;-67
2022/07/18 02:19:51;;;;;;;6.00;3.10;;;18.50;28.70;;;;;;5095614;28;20207;-67
2022/07/18 02:22:17;;;;;;;5.93;2.80;;;18.40;70.40;;;;;;5095745;28;20176;-67
2022/07/18 02:24:43;;;;;;;6.73;3.10;;;18.40;99.90;;;;;;5095497;28;20172;-67
2022/07/18 02:27:09;;;;;;;7.20;3.10;;;18.40;99.90;;;;;;5095807;28;20179;-67
2022/07/18 02:29:36;;;;;;;7.60;3.40;;;18.30;99.90;;;;;;5095622;28;20207;-67
2022/07/18 02:32:02;;;;;;;8.67;3.83;;;18.30;99.90;;;;;;5095724;28;20607;-68
2022/07/18 02:34:28;;;;;;;7.63;3.00;;;18.30;99.90;;;;;;5095420;28;20213;-68
2022/07/18 02:36:53;;;;;;;9.93;3.30;;;18.30;99.90;;;;;;5095501;28;20168;-68
2022/07/18 02:39:19;;;;;;;6.83;3.50;;;18.30;99.90;;;;;;5095414;28;20175;-68
2022/07/18 02:41:46;;;;;;;8.87;3.43;;;18.30;99.90;;;;;;5095204;28;20659;-68
2022/07/18 02:44:12;;;;;;;5.40;3.07;;;18.20;99.90;;;;;;5094409;28;20175;-67
2022/07/18 02:46:37;;;;;;;6.83;3.30;;;18.20;99.90;;;;;;5095828;28;20637;-67
2022/07/18 02:49:03;;;;;;;6.80;3.20;;;18.10;99.90;;;;;;5094912;28;20622;-69
2022/07/18 02:51:29;;;;;;;9.20;3.17;;;18.10;99.90;;;;;;5095246;28;20168;-68
2022/07/18 02:53:54;;;;;;;6.47;3.20;;;18.10;1.00;;;;;;5095282;28;20603;-68
2022/07/18 02:56:20;;;;;;;7.00;3.30;;;18.00;1.00;;;;;;5095337;28;20624;-69
2022/07/18 02:58:45;;;;;;;6.87;3.30;;;18.00;1.00;;;;;;5095138;28;20627;-68
2022/07/18 03:01:11;;;;;;;8.40;2.90;;;18.00;1.00;;;;;;5095115;28;20619;-68
2022/07/18 03:03:37;;;;;;;8.00;3.30;;;18.00;1.00;;;;;;5094765;28;20230;-67
2022/07/18 03:06:03;;;;;;;6.97;3.10;;;18.00;1.00;;;;;;5094995;28;20176;-68
2022/07/18 03:08:28;;;;;;;5.17;3.40;;;18.00;1.00;;;;;;5094766;28;20284;-68
2022/07/18 03:10:55;;;;;;;7.00;3.40;;;17.90;1.00;;;;;;5094817;28;20168;-68
2022/07/18 03:13:21;;;;;;;7.40;3.10;;;17.90;1.00;;;;;;5093068;28;20314;-68
2022/07/18 03:15:46;;;;;;;9.70;4.60;;;17.80;1.00;;;;;;5095189;28;20255;-68
2022/07/18 03:18:12;;;;;;;7.27;3.70;;;17.80;1.00;;;;;;5094485;28;20214;-68
2022/07/18 03:20:37;;;;;;;8.40;3.30;;;18.00;97.00;;;;;;5094602;28;20642;-69
2022/07/18 03:23:07;;;;;;;4.00;2.90;;;18.10;99.90;;;;;;5094382;28;20244;-69
2022/07/18 03:25:33;;;;;;;8.87;3.30;;;18.10;99.90;;;;;;5094527;28;20160;-69
2022/07/18 03:27:59;;;;;;;12.83;3.37;;;18.20;49.90;;;;;;5094628;28;20182;-68
2022/07/18 03:30:24;;;;;;;4.30;3.17;;;18.20;1.00;;;;;;5094290;28;20214;-69
2022/07/18 03:32:50;;;;;;;6.30;3.33;;;18.20;99.90;;;;;;5094026;28;20221;-68
2022/07/18 03:35:16;;;;;;;10.27;3.17;;;18.20;99.90;;;;;;5094311;28;20179;-69
2022/07/18 03:37:42;;;;;;;7.67;3.30;;;18.20;1.00;;;;;;5093759;28;20666;-68
2022/07/18 03:40:09;;;;;;;4.70;3.17;;;18.20;1.00;;;;;;5093939;28;20175;-68
2022/07/18 03:42:41;;;;;;;7.03;3.10;;;18.10;1.00;;;;;;5093944;28;20263;-68
2022/07/18 03:45:07;;;;;;;6.27;3.03;;;18.10;1.00;;;;;;5093994;28;20217;-68
2022/07/18 03:47:34;;;;;;;5.13;3.17;;;18.10;1.00;;;;;;5093711;28;20192;-68
2022/07/18 03:49:59;;;;;;;5.37;3.63;;;18.10;1.00;;;;;;5093755;28;20589;-68
2022/07/18 03:52:25;;;;;;;7.60;3.40;;;18.10;1.00;;;;;;5093748;28;20175;-69
2022/07/18 03:54:51;;;;;;;5.80;3.30;;;18.10;1.00;;;;;;5093874;28;20620;-68
2022/07/18 03:57:16;;;;;;;7.67;3.23;;;18.20;1.00;;;;;;5093814;28;20168;-68
2022/07/18 03:59:42;;;;;;;7.30;3.67;;;18.30;99.90;;;;;;5093484;28;20194;-69
2022/07/18 04:02:07;;;;;;;8.33;3.73;;;18.20;99.90;;;;;;5093704;28;20172;-69
2022/07/18 04:04:33;;;;;;;5.57;3.20;;;18.20;1.00;;;;;;5093861;28;20176;-69
2022/07/18 04:06:59;;;;;;;8.27;3.30;;;18.20;1.00;;;;;;5093583;28;20176;-69
2022/07/18 04:09:28;;;;;;;9.20;3.40;;;18.20;1.00;;;;;;5093159;28;20188;-69
2022/07/18 04:11:54;;;;;;;5.30;3.80;;;18.50;1.00;;;;;;5093604;28;20254;-69
2022/07/18 04:14:22;;;;;;;8.53;3.60;;;18.80;29.20;;;;;;5093381;28;20223;-69
2022/07/18 04:16:48;;;;;;;5.47;3.67;;;18.90;1.00;;;;;;5093241;28;20174;-69
2022/07/18 04:19:14;;;;;;;10.93;3.72;;;19.10;1.00;;;;;;5093401;28;20214;-69
2022/07/18 04:21:39;;;;;;;9.77;4.03;;;19.30;99.90;;;;;;5093072;28;20199;-69
2022/07/18 04:24:05;;;;;;;7.65;3.75;;;19.60;99.90;;;;;;5093444;28;20202;-69
2022/07/18 04:26:31;;;;;;;5.35;3.22;;;20.00;1.00;;;;;;5093460;28;20217;-69
2022/07/18 04:28:56;;;;;;;9.75;3.70;;;20.50;1.00;;;;;;5093546;28;20207;-69
2022/07/18 04:31:22;;;;;;;8.77;4.00;;;21.30;99.90;;;;;;5092825;28;20204;-69
2022/07/18 04:33:47;;;;;;;9.73;4.00;;;21.80;10.80;;;;;;5093315;28;20180;-69
2022/07/18 04:36:13;;;;;;;13.10;4.55;;;22.60;1.00;;;;;;5092991;28;20650;-69
2022/07/18 04:38:39;;;;;;;12.25;4.03;;;23.60;99.90;;;;;;5093248;28;20166;-69
2022/07/18 04:41:05;;;;;;;10.60;4.28;;;24.70;1.00;;;;;;5093262;28;20635;-69
2022/07/18 04:43:31;;;;;;;12.65;4.43;;;25.50;1.00;;;;;;5093558;28;20198;-69
2022/07/18 04:45:57;;;;;;;14.48;4.78;;;25.90;99.90;;;;;;5092215;28;20168;-68
2022/07/18 04:48:22;;;;;;;19.45;5.40;;;26.80;99.90;;;;;;5092095;28;20198;-68
2022/07/18 04:50:48;;;;;;;11.68;4.55;;;27.40;99.90;;;;;;5092880;28;20271;-68
2022/07/18 04:53:13;;;;;;;11.95;3.90;;;27.10;99.90;;;;;;5092541;28;20691;-68
2022/07/18 04:55:39;;;;;;;10.13;4.07;;;26.80;99.90;;;;;;5093056;28;20284;-70
2022/07/18 04:58:05;;;;;;;10.02;3.67;;;26.60;99.90;;;;;;5091844;28;20570;-70
2022/07/18 05:00:31;;;;;;;9.73;4.13;;;26.40;99.90;;;;;;5087736;28;20535;-70
2022/07/18 05:02:57;;;;;;;8.85;3.45;;;26.90;99.90;;;;;;5094407;28;20187;-70
2022/07/18 05:05:25;;;;;;;11.50;3.80;;;27.60;99.90;;;;;;5095950;28;20184;-69
2022/07/18 05:07:51;;;;;;;10.95;4.30;;;27.80;99.90;;;;;;5105992;28;20645;-69
2022/07/18 05:10:19;;;;;;;12.43;4.32;;;27.90;99.90;;;;;;5095481;28;20203;-70
2022/07/18 05:12:46;;;;;;;12.25;4.20;;;28.60;99.90;;;;;;5104176;28;20530;-70
2022/07/18 05:15:14;;;;;;;15.70;4.32;;;29.40;99.90;;;;;;5103381;28;20183;-70
2022/07/18 05:17:40;;;;;;;16.67;4.82;;;30.10;99.90;;;;;;5096736;28;20183;-70
2022/07/18 05:20:09;;;;;;;19.58;4.95;;;30.80;99.90;;;;;;5109226;28;20228;-70
2022/07/18 05:22:35;;;;;;;17.05;4.82;;;31.70;99.90;;;;;;5098387;28;20183;-71
2022/07/18 05:25:02;;;;;;;16.83;5.03;;;32.50;99.90;;;;;;5102356;28;20198;-72
2022/07/18 05:27:27;;;;;;;16.60;5.30;;;33.30;96.00;;;;;;5106002;28;20171;-73
2022/07/18 05:29:53;;;;;;;16.15;5.10;;;33.90;78.40;;;;;;5096676;28;20204;-73
2022/07/18 05:32:18;;;;;;;17.98;4.50;;;34.20;61.70;;;;;;5108522;28;20636;-73
2022/07/18 05:34:44;;;;;;;15.00;4.90;;;34.50;54.80;;;;;;5099207;28;20167;-72
2022/07/18 05:37:10;;;;;;;13.43;5.13;;;34.70;45.90;;;;;;5100217;28;20600;-72
2022/07/18 05:39:35;;;;;;;15.63;4.85;;;35.10;36.40;;;;;;5081671;28;20176;-73
2022/07/18 05:42:02;;;;;;;17.88;5.38;;;35.80;28.80;;;;;;5106810;28;20256;-73
2022/07/18 05:44:28;;;;;;;22.05;5.60;;;36.20;23.30;;;;;;5097190;28;20171;-72
2022/07/18 05:46:54;;;;;;;12.63;4.70;;;35.20;18.30;;;;;;5102946;28;20663;-72
2022/07/18 05:49:19;;;;;;;15.75;4.93;;;34.50;21.50;;;;;;5104127;28;20693;-71
2022/07/18 05:51:45;;;;;;;13.60;5.00;;;34.60;19.20;;;;;;5096066;28;20176;-71
2022/07/18 05:54:11;;;;;;;23.52;6.30;;;35.40;18.20;;;;;;5109233;28;20168;-71
2022/07/18 05:56:36;;;;;;;16.25;5.22;;;36.30;10.00;;;;;;5105320;28;20175;-71
2022/07/18 05:59:02;;;;;;;14.88;4.60;;;37.00;11.30;;;;;;5098959;28;20269;-71
2022/07/18 06:01:28;;;;;;;14.50;4.50;;;37.40;1.30;;;;;;5108321;28;20163;-72
2022/07/18 06:03:53;;;;;;;13.80;4.47;;;37.30;1.00;;;;;;5098377;28;20537;-71
2022/07/18 06:06:19;;;;;;;12.50;4.47;;;37.70;1.00;;;;;;5111362;28;20199;-71
2022/07/18 06:08:45;;;;;;;14.15;4.18;;;38.10;1.00;;;;;;5102942;28;20203;-72
2022/07/18 06:11:10;;;;;;;11.05;4.35;;;38.70;1.00;;;;;;5103683;28;20268;-72
2022/07/18 06:13:40;;;;;;;10.30;4.30;;;39.10;1.00;;;;;;5109622;28;20214;-72
2022/07/18 06:16:06;;;;;;;13.43;5.15;;;39.60;1.00;;;;;;5098361;28;20244;-73
2022/07/18 06:18:34;;;;;;;9.73;3.63;;;39.20;1.00;;;;;;5109669;27;20159;-72
2022/07/18 06:21:03;;;;;;;6.28;3.65;;;39.60;1.00;;;;;;5104921;28;20167;-72
2022/07/18 06:23:29;;;;;;;7.45;3.90;;;40.60;1.00;;;;;;5101217;28;20171;-72
2022/07/18 06:25:56;;;;;;;10.18;3.53;;;41.00;1.00;;;;;;5110867;28;20254;-72
2022/07/18 06:28:21;;;;;;;8.35;4.38;;;41.20;1.00;;;;;;5099133;28;20167;-72
2022/07/18 06:30:47;;;;;;;6.60;4.15;;;41.60;1.00;;;;;;5106581;28;20660;-73
2022/07/18 06:33:13;;;;;;;9.75;4.10;;;41.50;1.00;;;;;;5106236;28;20163;-73
2022/07/18 06:35:39;;;;;;;13.30;3.92;;;41.30;1.00;;;;;;5099701;28;20681;-73
2022/07/18 06:38:05;;;;;;;5.50;3.70;;;41.10;1.00;;;;;;5111320;28;20333;-73
2022/07/18 06:40:31;;;;;;;7.95;3.08;;;41.10;1.00;;;;;;5100105;28;20661;-73
2022/07/18 06:42:56;;;;;;;6.25;3.15;;;41.40;1.00;;;;;;5105567;28;20191;-73
2022/07/18 06:45:22;;;;;;;3.65;3.10;;;40.70;1.00;;;;;;5095795;28;20662;-73
2022/07/18 06:47:48;;;;;;;4.75;2.80;;;39.50;1.00;;;;;;5093211;28;20175;-72
2022/07/18 06:50:14;;;;;;;5.05;3.50;;;39.60;1.00;;;;;;5110626;28;20290;-72
2022/07/18 06:52:41;;;;;;;6.63;3.10;;;39.90;1.00;;;;;;5100998;28;20585;-72
2022/07/18 06:55:08;;;;;;;7.30;3.97;;;40.10;1.00;;;;;;5111399;28;20209;-73
2022/07/18 06:57:34;;;;;;;6.80;3.30;;;40.20;1.00;;;;;;5099943;28;20649;-73
2022/07/18 06:59:59;;;;;;;4.55;3.47;;;40.50;1.00;;;;;;5110609;28;20526;-74
2022/07/18 07:02:25;;;;;;;7.03;3.28;;;40.50;1.00;;;;;;5099234;28;20166;-74
2022/07/18 07:04:51;;;;;;;7.40;3.15;;;41.10;1.00;;;;;;5106192;28;20197;-73
2022/07/18 07:07:16;;;;;;;6.22;3.50;;;41.60;1.00;;;;;;5105375;28;20198;-75
2022/07/18 07:09:42;;;;;;;4.00;3.05;;;41.60;1.00;;;;;;5098082;28;20661;-75
2022/07/18 07:12:09;;;;;;;6.35;3.33;;;42.20;1.00;;;;;;5109963;28;20163;-74
2022/07/18 07:14:36;;;;;;;5.25;3.60;;;42.60;1.00;;;;;;5100340;28;20222;-74
2022/07/18 07:17:01;;;;;;;7.90;3.55;;;42.80;1.00;;;;;;5103646;28;20250;-75
2022/07/18 07:19:27;;;;;;;4.75;3.35;;;42.60;1.00;;;;;;5107630;28;20771;-74
2022/07/18 07:21:52;;;;;;;6.75;3.50;;;42.80;1.00;;;;;;5097120;28;20175;-76
2022/07/18 07:24:18;;;;;;;6.75;3.80;;;42.80;1.00;;;;;;5109952;28;20262;-77
2022/07/18 07:26:44;;;;;;;4.82;3.33;;;43.10;1.00;;;;;;5101135;28;20598;-77
2022/07/18 07:29:09;;;;;;;4.90;3.35;;;43.10;1.00;;;;;;5102407;28;20248;-76
2022/07/18 07:31:35;;;;;;;7.63;5.10;;;43.10;1.00;;;;;;5093324;28;20652;-76
2022/07/18 07:34:00;;;;;;;3.92;2.90;;;43.40;1.00;;;;;;5095802;28;20220;-75
2022/07/18 07:36:26;;;;;;;4.88;4.28;;;43.40;1.00;;;;;;5108576;28;20175;-75
2022/07/18 07:38:51;;;;;;;3.60;3.17;;;43.50;1.00;;;;;;5100381;28;20630;-77
2022/07/18 07:41:17;;;;;;;4.07;3.40;;;43.80;1.00;;;;;;5101228;28;20274;-77
2022/07/18 07:43:43;;;;;;;3.30;2.63;;;43.20;1.00;;;;;;5106170;28;20179;-77
2022/07/18 07:46:10;;;;;;;3.30;3.00;;;42.90;1.00;;;;;;5110004;28;20545;-75
2022/07/18 07:48:36;;;;;;;4.30;2.72;;;42.40;1.00;;;;;;5098937;28;20218;-77
2022/07/18 07:51:03;;;;;;;3.00;2.20;;;41.70;1.00;;;;;;5095682;28;20214;-77
2022/07/18 07:53:29;;;;;;;2.65;2.45;;;41.80;1.00;;;;;;5094510;28;20195;-77
2022/07/18 07:55:54;;;;;;;7.22;2.67;;;41.90;1.00;;;;;;5092255;28;20686;-77
2022/07/18 07:58:20;;;;;;;3.72;2.72;;;41.90;1.00;;;;;;5109323;28;20626;-77
2022/07/18 08:00:45;;;;;;;7.53;3.20;;;41.20;1.00;;;;;;5099701;28;20486;-77
2022/07/18 08:03:11;;;;;;;4.60;2.88;;;40.60;1.00;;;;;;5097549;28;20182;-76
2022/07/18 08:05:43;;;;;;;3.63;2.63;;;41.40;1.00;;;;;;5107600;28;20625;-77
2022/07/18 08:08:08;;;;;;;5.50;3.33;;;41.60;1.00;;;;;;5096230;28;20163;-77
2022/07/18 08:10:34;;;;;;;8.95;3.35;;;41.90;1.00;;;;;;5106441;28;20328;-78
2022/07/18 08:13:00;;;;;;;6.10;2.28;;;41.60;1.00;;;;;;5102166;28;20214;-76
2022/07/18 08:15:26;;;;;;;7.18;3.15;;;42.20;1.00;;;;;;5099753;28;20172;-76
2022/07/18 08:17:52;;;;;;;4.05;2.40;;;43.20;1.00;;;;;;5109369;28;20220;-78
2022/07/18 08:20:19;;;;;;;9.43;3.60;;;43.30;1.00;;;;;;5096886;28;20214;-79
2022/07/18 08:23:00;;;;;;;4.68;3.10;;;43.50;1.00;;;;;;5105048;27;20210;-76
2022/07/18 08:25:27;;;;;;;10.63;3.42;;;44.00;1.00;;;;;;5106992;28;20182;-77
2022/07/18 08:27:53;;;;;;;4.57;2.50;;;44.50;1.00;;;;;;5096272;28;20541;-77
2022/07/18 08:30:19;;;;;;;2.88;2.63;;;45.30;1.00;;;;;;5108927;28;20214;-77
2022/07/18 08:32:44;;;;;;;7.32;3.35;;;44.60;1.00;;;;;;5099192;28;20518;-77
2022/07/18 08:35:10;;;;;;;3.55;2.55;;;44.70;1.00;;;;;;5100955;28;20201;-77
2022/07/18 08:37:36;;;;;;;6.82;3.63;;;44.90;1.00;;;;;;5106860;28;20167;-76
2022/07/18 08:40:02;;;;;;;6.70;3.20;;;45.20;1.00;;;;;;5085550;28;20506;-76
2022/07/18 08:42:27;;;;;;;7.25;3.83;;;45.50;1.00;;;;;;5107873;28;20198;-76
2022/07/18 08:44:56;;;;;;;4.57;2.50;;;45.40;1.00;;;;;;5101309;28;20174;-76
2022/07/18 08:47:23;;;;;;;6.80;2.65;;;44.30;1.00;;;;;;5100115;28;20647;-76
2022/07/18 08:49:49;;;;;;;4.53;2.83;;;44.30;1.00;;;;;;5109481;28;20296;-77
2022/07/18 08:52:16;;;;;;;12.95;3.20;;;45.00;1.00;;;;;;5090984;28;20159;-78
2022/07/18 08:54:42;;;;;;;6.13;2.42;;;44.70;1.00;;;;;;5103133;28;20186;-77
2022/07/18 08:57:09;;;;;;;5.85;2.70;;;44.60;1.00;;;;;;5093931;28;20178;-76
2022/07/18 08:59:35;;;;;;;5.68;2.63;;;42.80;1.00;;;;;;5097106;28;20175;-76
2022/07/18 09:02:00;;;;;;;7.68;3.40;;;42.10;1.00;;;;;;5078089;28;20210;-76
2022/07/18 09:04:38;;;;;;;5.30;2.70;;;42.40;1.00;;;;;;5107225;28;20611;-77
2022/07/18 09:07:06;;;;;;;8.13;2.97;;;43.20;1.00;;;;;;5102028;28;20657;-76
2022/07/18 09:09:32;;;;;;;5.32;2.70;;;43.70;1.00;;;;;;5098566;28;20199;-77
2022/07/18 09:12:03;;;;;;;4.40;2.75;;;43.80;1.00;;;;;;5109902;28;20162;-76
2022/07/18 09:14:40;;;;;;;6.80;2.65;;;44.00;1.00;;;;;;5093526;28;20226;-77
2022/07/18 09:17:11;;;;;;;5.25;2.67;;;43.40;1.00;;;;;;5094883;28;20244;-77
2022/07/18 09:19:39;;;;;;;4.60;2.53;;;43.70;1.00;;;;;;5086687;28;20186;-76
2022/07/18 09:22:18;;;;;;;3.42;3.08;;;43.20;1.00;;;;;;5117254;28;20253;-76
2022/07/18 09:24:55;;;;;;;5.18;2.40;;;43.20;1.00;;;;;;5107995;28;20234;-75
2022/07/18 09:27:25;;;;;;;4.45;2.40;;;43.20;1.00;;;;;;5104269;28;20182;-77
2022/07/18 09:30:11;;;;;;;4.30;2.35;;;42.70;1.00;;;;;;5096321;28;20289;-77
2022/07/18 09:32:38;;;;;;;2.90;2.05;;;42.70;1.00;;;;;;5105278;28;20163;-77
2022/07/18 09:35:12;;;;;;;3.38;2.22;;;42.80;1.00;;;;;;5103406;28;20172;-77
2022/07/18 09:37:39;;;;;;;2.47;2.10;;;42.80;1.00;;;;;;5107946;28;20167;-76
2022/07/18 09:40:16;;;;;;;3.17;2.55;;;42.80;1.00;;;;;;5112518;28;20178;-76
2022/07/18 09:42:42;;;;;;;2.00;1.90;;;43.20;1.00;;;;;;5102821;28;20194;-76
2022/07/18 09:45:08;;;;;;;5.00;1.85;;;43.80;1.00;;;;;;5105650;28;20250;-75
2022/07/18 09:47:58;;;;;;;3.80;2.20;;;42.60;1.00;;;;;;5110567;28;20210;-76
2022/07/18 09:50:27;;;;;;;3.72;2.15;;;43.10;1.00;;;;;;5076828;28;20214;-76
2022/07/18 09:53:26;;;;;;;5.35;1.98;;;43.10;1.00;;;;;;5107027;28;20210;-76
2022/07/18 09:55:56;;;;;;;3.28;2.10;;;43.10;1.00;;;;;;5107169;28;20172;-75
2022/07/18 09:58:28;;;;;;;2.10;1.90;;;43.50;1.00;;;;;;5098633;28;20646;-75
2022/07/18 10:00:55;;;;;;;6.10;1.98;;;42.80;1.00;;;;;;5106419;28;20195;-76
2022/07/18 10:03:23;;;;;;;2.50;1.75;;;42.80;1.00;;;;;;5107874;28;20270;-75
2022/07/18 10:05:50;;;;;;;3.95;1.80;;;42.80;1.00;;;;;;5094796;28;20168;-74
2022/07/18 10:08:19;;;;;;;2.15;1.52;;;42.70;1.00;;;;;;5090395;28;20504;-76
2022/07/18 10:10:47;;;;;;;3.13;1.63;;;42.80;1.00;;;;;;5094648;28;20325;-75
2022/07/18 10:13:14;;;;;;;3.13;1.92;;;42.80;1.00;;;;;;5103818;28;20314;-76
2022/07/18 10:15:42;;;;;;;1.60;1.50;;;42.50;1.00;;;;;;5109945;28;20166;-76
2022/07/18 10:18:10;;;;;;;2.88;1.52;;;42.80;1.00;;;;;;5095089;28;20179;-77
2022/07/18 10:20:46;;;;;;;2.05;1.50;;;42.40;1.00;;;;;;5098978;28;20636;-78
2022/07/18 10:23:25;;;;;;;3.17;1.55;;;41.60;1.00;;;;;;5100762;28;20171;-77
2022/07/18 10:26:15;;;;;;;2.03;1.67;;;40.90;1.00;;;;;;5107828;28;20703;-77
2022/07/18 10:28:56;;;;;;;2.50;1.90;;;40.60;1.00;;;;;;5093571;28;20213;-77
2022/07/18 10:31:38;;;;;;;2.85;1.75;;;41.50;1.00;;;;;;5102554;28;20171;-77
2022/07/18 10:34:07;;;;;;;2.42;1.50;;;41.80;1.00;;;;;;5110978;28;20170;-76
2022/07/18 10:36:37;;;;;;;2.78;1.60;;;41.50;1.00;;;;;;5100927;28;20163;-77
2022/07/18 10:39:17;;;;;;;3.10;1.60;;;41.30;1.00;;;;;;5105607;28;20352;-77
2022/07/18 10:41:45;;;;;;;2.10;1.90;;;41.20;1.00;;;;;;5110403;28;20194;-76
2022/07/18 10:44:23;;;;;;;2.28;1.67;;;41.40;1.00;;;;;;5098511;28;20162;-77
2022/07/18 10:50:00;;;;;;;2.45;1.70;;;41.00;1.00;;;;;;5048362;28;20775;-77
2022/07/18 10:52:26;;;;;;;3.63;1.77;;;41.50;1.00;;;;;;5036678;28;20179;-77
2022/07/18 10:57:31;;;;;;;3.28;1.77;;;42.40;1.00;;;;;;5038635;28;20181;-76
2022/07/18 11:00:16;;;;;;;3.22;1.80;;;42.20;1.00;;;;;;5048454;28;20180;-74
2022/07/18 11:02:42;;;;;;;2.83;1.83;;;41.60;1.00;;;;;;5038439;28;20543;-74
2022/07/18 11:05:23;;;;;;;2.55;1.75;;;41.60;1.00;;;;;;5040888;28;20228;-76
2022/07/18 11:08:13;;;;;;;3.90;1.63;;;41.00;1.00;;;;;;5031687;28;20208;-75
2022/07/18 11:10:44;;;;;;;2.70;1.73;;;39.20;1.00;;;;;;5019819;28;20240;-75
2022/07/18 11:13:25;;;;;;;1.73;1.63;;;38.90;1.00;;;;;;5039701;28;20606;-75
2022/07/18 11:15:58;;;;;;;2.10;1.60;;;39.30;1.00;;;;;;5026566;28;20232;-76
2022/07/18 11:18:27;;;;;;;3.35;1.90;;;39.90;1.00;;;;;;5031991;28;20174;-76
2022/07/18 11:20:52;;;;;;;1.98;1.65;;;40.30;1.00;;;;;;5044274;28;20181;-76
2022/07/18 11:23:21;;;;;;;6.47;2.58;;;40.20;1.00;;;;;;5030759;28;20211;-74
2022/07/18 11:25:54;;;;;;;2.63;1.90;;;39.80;1.00;;;;;;5056510;28;20184;-75
2022/07/18 11:28:20;;;;;;;1.98;1.80;;;39.90;1.00;;;;;;5108648;28;20182;-74
2022/07/18 11:30:58;;;;;;;1.77;1.67;;;39.60;1.00;;;;;;5096410;28;20203;-74
2022/07/18 11:33:27;;;;;;;1.58;1.45;;;39.70;1.00;;;;;;5106938;27;20171;-76
2022/07/18 11:36:10;;;;;;;11.30;2.55;;;40.30;1.00;;;;;;5104349;28;20620;-75
2022/07/18 11:38:46;;;;;;;5.68;2.00;;;39.90;1.00;;;;;;5096994;28;20167;-75
2022/07/18 11:41:11;;;;;;;2.38;1.40;;;40.10;1.00;;;;;;5108423;28;20190;-75
2022/07/18 11:43:37;;;;;;;2.70;1.40;;;39.90;1.00;;;;;;5102193;28;20174;-75
2022/07/18 11:46:07;;;;;;;5.40;2.20;;;39.70;1.00;;;;;;5100971;28;20639;-75
2022/07/18 11:48:34;;;;;;;2.10;2.00;;;39.50;1.00;;;;;;5093089;28;20715;-74
2022/07/18 11:51:00;;;;;;;3.03;2.08;;;38.90;1.00;;;;;;5093569;28;20183;-75
2022/07/18 11:53:26;;;;;;;4.75;1.80;;;38.70;1.00;;;;;;5084835;28;20254;-74
2022/07/18 11:55:54;;;;;;;3.30;1.65;;;38.20;1.00;;;;;;5090428;28;20597;-74
2022/07/18 11:58:19;;;;;;;3.05;1.90;;;38.40;1.00;;;;;;5102699;28;20171;-75
2022/07/18 12:00:46;;;;;;;1.55;1.45;;;38.40;1.00;;;;;;5106369;28;20169;-73
2022/07/18 12:03:19;;;;;;;3.10;1.70;;;38.30;1.00;;;;;;5096230;28;20211;-73
2022/07/18 12:05:50;;;;;;;3.00;1.80;;;37.30;1.00;;;;;;5107861;28;20220;-75
2022/07/18 12:08:38;;;;;;;2.58;1.60;;;37.30;1.00;;;;;;5102256;28;20237;-75
2022/07/18 12:11:06;;;;;;;2.78;1.77;;;37.50;1.00;;;;;;5097156;28;20187;-74
2022/07/18 12:13:49;;;;;;;4.00;1.73;;;37.30;1.00;;;;;;5109274;28;20238;-75
2022/07/18 12:16:45;;;;;;;2.25;1.63;;;37.30;1.00;;;;;;5101860;28;20166;-75
2022/07/18 12:19:17;;;;;;;3.80;1.75;;;37.30;1.00;;;;;;5095336;28;20240;-75
2022/07/18 12:21:55;;;;;;;2.00;1.60;;;37.20;1.00;;;;;;5108440;28;20163;-75
2022/07/18 12:24:40;;;;;;;3.80;2.00;;;36.90;1.00;;;;;;5102941;28;20170;-74
2022/07/18 12:27:22;;;;;;;1.90;1.63;;;36.70;1.00;;;;;;5096455;28;20182;-75
2022/07/18 12:30:05;;;;;;;5.35;1.85;;;36.00;1.00;;;;;;5083314;28;20199;-75
2022/07/18 12:32:43;;;;;;;1.92;1.52;;;35.90;1.00;;;;;;5101517;28;20160;-75
2022/07/18 12:35:31;;;;;;;3.15;1.52;;;35.30;1.00;;;;;;5108589;28;20726;-75
2022/07/18 12:38:06;;;;;;;2.80;1.60;;;35.00;1.00;;;;;;5099011;28;20167;-74
2022/07/18 12:40:52;;;;;;;5.53;2.08;;;35.00;1.00;;;;;;5100762;28;20163;-73
2022/07/18 12:43:37;;;;;;;6.15;2.00;;;35.10;1.00;;;;;;5108932;28;20163;-74
2022/07/18 12:46:08;;;;;;;5.93;1.83;;;35.40;1.00;;;;;;5098534;28;20574;-74
2022/07/18 12:48:35;;;;;;;1.73;1.60;;;35.40;1.00;;;;;;5110746;28;20179;-75
2022/07/18 12:51:03;;;;;;;3.55;1.98;;;35.70;1.00;;;;;;5096349;28;20172;-73
2022/07/18 12:53:31;;;;;;;3.03;1.80;;;35.80;1.00;;;;;;5107714;28;20270;-74
2022/07/18 12:55:57;;;;;;;4.75;2.60;;;35.50;1.00;;;;;;5098581;28;20171;-73
2022/07/18 12:58:23;;;;;;;1.80;1.70;;;35.60;1.00;;;;;;5101942;28;20266;-75
2022/07/18 13:00:49;;;;;;;1.58;1.40;;;35.60;1.00;;;;;;5106023;28;20718;-75
2022/07/18 13:03:15;;;;;;;3.08;1.80;;;35.70;1.00;;;;;;5093937;28;20168;-75
2022/07/18 13:05:41;;;;;;;3.03;1.90;;;35.50;1.00;;;;;;5108274;28;20650;-75